Time;durP1;ratioP1;P1;durP2;ratioP2;P2;SDS_P1;SDS_P2;PMS_P1;PMS_P2;Temp;Humidity;BMP_temperature;BMP_pressure;BME280_temperature;BME280_humidity;BME280_pressure;Samples;Min_cycle;Max_cycle;Signal;HPM_P1;HPM_P2
2021/05/20 00:01:25;;;;;;;11.37;7.80;;;11.70;92.10;;;;;;5016105;28;20260;-79
2021/05/20 00:03:52;;;;;;;9.90;8.00;;;11.60;91.90;;;;;;5016147;28;20163;-80
2021/05/20 00:06:17;;;;;;;9.83;7.40;;;11.50;92.40;;;;;;5015973;28;20253;-79
2021/05/20 00:08:43;;;;;;;8.00;7.00;;;11.50;93.00;;;;;;5015342;28;20340;-79
2021/05/20 00:11:08;;;;;;;11.33;8.60;;;11.40;93.40;;;;;;5016087;28;20217;-80
2021/05/20 00:13:34;;;;;;;11.13;7.53;;;11.40;93.80;;;;;;5016487;28;20523;-78
2021/05/20 00:16:00;;;;;;;9.67;7.57;;;11.50;93.50;;;;;;5016075;28;20257;-80
2021/05/20 00:18:25;;;;;;;11.57;7.33;;;11.60;93.10;;;;;;5016127;28;20592;-79
2021/05/20 00:20:51;;;;;;;10.63;7.90;;;11.60;93.00;;;;;;5016012;28;20583;-79
2021/05/20 00:23:17;;;;;;;9.60;7.13;;;11.60;92.60;;;;;;5015990;28;20174;-79
2021/05/20 00:25:42;;;;;;;11.43;7.33;;;11.50;91.90;;;;;;5015628;28;20182;-78
2021/05/20 00:28:08;;;;;;;9.47;6.87;;;11.50;91.80;;;;;;5015956;28;20283;-79
2021/05/20 00:30:34;;;;;;;10.03;7.00;;;11.50;90.90;;;;;;5015542;28;20198;-79
2021/05/20 00:32:59;;;;;;;12.23;7.60;;;11.40;91.90;;;;;;5015836;28;20182;-79
2021/05/20 00:35:25;;;;;;;8.60;6.70;;;11.20;93.40;;;;;;5014595;28;20253;-79
2021/05/20 00:37:50;;;;;;;9.87;7.60;;;11.10;94.80;;;;;;5015387;28;20605;-81
2021/05/20 00:40:17;;;;;;;8.90;7.57;;;11.00;95.30;;;;;;5015943;28;20181;-79
2021/05/20 00:42:47;;;;;;;11.47;6.97;;;10.90;96.10;;;;;;5014437;28;20178;-79
2021/05/20 00:45:13;;;;;;;9.40;7.27;;;11.00;96.40;;;;;;5015252;28;20205;-78
2021/05/20 00:47:39;;;;;;;12.00;7.43;;;11.00;96.40;;;;;;5015752;28;20221;-79
2021/05/20 00:50:09;;;;;;;9.80;7.63;;;10.90;96.60;;;;;;5013517;28;20592;-79
2021/05/20 00:52:36;;;;;;;8.97;7.10;;;10.90;95.70;;;;;;5014303;28;20674;-79
2021/05/20 00:55:05;;;;;;;10.67;7.90;;;10.70;97.10;;;;;;5015167;28;20279;-78
2021/05/20 00:57:30;;;;;;;11.23;7.70;;;10.60;97.90;;;;;;5013500;28;20657;-80
2021/05/20 01:00:04;;;;;;;10.80;7.67;;;10.60;98.40;;;;;;5014900;28;20171;-79
2021/05/20 01:02:30;;;;;;;9.53;7.17;;;10.60;98.70;;;;;;5015463;28;20722;-79
2021/05/20 01:04:56;;;;;;;9.00;6.73;;;10.60;99.00;;;;;;5013615;28;20198;-79
2021/05/20 01:07:21;;;;;;;11.70;7.60;;;10.60;99.00;;;;;;5015165;28;20181;-79
2021/05/20 01:09:47;;;;;;;10.13;7.53;;;10.60;99.00;;;;;;5015466;28;20194;-79
2021/05/20 01:12:13;;;;;;;11.20;7.67;;;10.60;98.90;;;;;;5015117;28;20222;-79
2021/05/20 01:14:40;;;;;;;11.17;7.17;;;10.80;98.00;;;;;;5015157;28;20178;-78
2021/05/20 01:17:06;;;;;;;8.50;7.30;;;10.80;96.90;;;;;;5015016;28;20202;-78
2021/05/20 01:19:36;;;;;;;9.20;7.67;;;10.70;97.30;;;;;;5014772;28;20174;-78
2021/05/20 01:22:03;;;;;;;9.80;8.03;;;10.70;97.90;;;;;;5015189;28;20175;-79
2021/05/20 01:24:28;;;;;;;12.43;8.67;;;10.70;97.40;;;;;;5015091;28;20832;-78
2021/05/20 01:26:54;;;;;;;11.20;8.33;;;10.60;97.60;;;;;;5014624;28;20190;-79
2021/05/20 01:29:20;;;;;;;10.00;8.20;;;10.50;98.20;;;;;;5013335;28;20657;-79
2021/05/20 01:31:46;;;;;;;10.33;8.00;;;10.50;98.90;;;;;;5014619;28;20210;-79
2021/05/20 01:34:11;;;;;;;10.33;7.97;;;10.60;98.70;;;;;;5013587;28;20689;-80
2021/05/20 01:36:37;;;;;;;11.00;8.87;;;10.50;98.10;;;;;;5015285;28;20170;-79
2021/05/20 01:39:03;;;;;;;10.87;8.50;;;10.50;98.40;;;;;;5013564;28;20265;-80
2021/05/20 01:41:29;;;;;;;12.73;9.30;;;10.50;98.70;;;;;;5014941;28;20196;-80
2021/05/20 01:43:55;;;;;;;11.27;8.87;;;10.60;98.80;;;;;;5014525;28;20508;-79
2021/05/20 01:46:21;;;;;;;12.20;8.77;;;10.70;98.50;;;;;;5014331;28;20181;-78
2021/05/20 01:48:48;;;;;;;13.43;9.20;;;10.70;98.40;;;;;;5014019;28;20167;-79
2021/05/20 01:51:17;;;;;;;13.40;9.97;;;10.70;98.30;;;;;;5012767;28;20194;-78
2021/05/20 01:53:53;;;;;;;11.07;8.70;;;10.60;97.90;;;;;;5014515;28;20166;-79
2021/05/20 01:56:20;;;;;;;11.00;9.00;;;10.70;97.60;;;;;;5014177;28;20177;-79
2021/05/20 01:58:47;;;;;;;11.87;8.87;;;10.60;97.30;;;;;;5014131;28;20179;-78
2021/05/20 02:01:13;;;;;;;12.37;9.37;;;10.50;97.60;;;;;;5012103;28;20198;-78
2021/05/20 02:03:39;;;;;;;13.80;10.43;;;10.50;97.90;;;;;;5012834;28;20170;-79
2021/05/20 02:06:06;;;;;;;16.13;10.40;;;10.40;98.30;;;;;;5014456;28;20260;-79
2021/05/20 02:08:33;;;;;;;12.03;9.97;;;10.30;98.40;;;;;;5013300;28;20174;-78
2021/05/20 02:11:00;;;;;;;13.10;9.57;;;10.30;98.60;;;;;;5014183;28;20209;-78
2021/05/20 02:13:26;;;;;;;13.17;10.10;;;10.50;98.60;;;;;;5014117;28;20619;-79
2021/05/20 02:15:52;;;;;;;13.70;9.93;;;10.60;98.00;;;;;;5013546;28;20178;-79
2021/05/20 02:18:18;;;;;;;14.50;10.50;;;10.70;97.50;;;;;;5012791;28;20185;-78
2021/05/20 02:20:45;;;;;;;16.03;11.57;;;10.70;97.10;;;;;;5013111;28;20221;-78
2021/05/20 02:23:12;;;;;;;13.77;10.33;;;10.70;96.80;;;;;;5013970;28;20248;-80
2021/05/20 02:25:38;;;;;;;14.17;10.17;;;10.70;96.60;;;;;;5011934;28;20281;-80
2021/05/20 02:28:04;;;;;;;15.43;11.20;;;10.70;96.70;;;;;;5013502;28;20608;-79
2021/05/20 02:30:30;;;;;;;11.53;9.53;;;10.70;96.10;;;;;;5012110;28;20553;-79
2021/05/20 02:32:56;;;;;;;13.47;9.90;;;10.80;95.70;;;;;;5012434;28;20277;-79
2021/05/20 02:35:22;;;;;;;13.13;9.67;;;10.60;94.90;;;;;;5013955;28;20253;-79
2021/05/20 02:37:48;;;;;;;12.73;10.97;;;10.50;96.10;;;;;;5012331;28;20641;-78
2021/05/20 02:40:15;;;;;;;13.90;11.07;;;10.30;97.10;;;;;;5013346;28;20213;-79
2021/05/20 02:42:40;;;;;;;18.43;11.10;;;10.40;96.50;;;;;;5012132;28;20262;-79
2021/05/20 02:45:08;;;;;;;16.43;11.50;;;10.20;97.10;;;;;;5011946;28;20273;-78
2021/05/20 02:47:35;;;;;;;15.20;11.93;;;10.00;98.30;;;;;;5013363;28;20212;-78
2021/05/20 02:50:00;;;;;;;14.50;12.37;;;9.80;99.30;;;;;;5013478;28;20182;-78
2021/05/20 02:52:26;;;;;;;15.37;12.60;;;9.70;99.90;;;;;;5012840;28;20309;-79
2021/05/20 02:54:52;;;;;;;16.13;12.10;;;9.60;99.90;;;;;;5011439;28;20228;-79
2021/05/20 02:57:17;;;;;;;15.23;13.20;;;9.70;99.90;;;;;;5013351;28;20232;-79
2021/05/20 02:59:43;;;;;;;16.13;13.23;;;9.70;99.90;;;;;;5013059;28;20184;-80
2021/05/20 03:02:09;;;;;;;14.87;12.37;;;9.70;99.90;;;;;;5012959;28;20618;-79
2021/05/20 03:04:36;;;;;;;15.77;12.60;;;9.70;99.90;;;;;;5013211;28;20176;-80
2021/05/20 03:07:03;;;;;;;16.00;13.37;;;9.70;99.90;;;;;;5013025;28;20197;-80
2021/05/20 03:09:29;;;;;;;15.83;12.60;;;9.70;99.90;;;;;;5011922;28;20228;-80
2021/05/20 03:11:57;;;;;;;15.67;12.70;;;9.70;99.90;;;;;;5012381;28;20529;-79
2021/05/20 03:14:26;;;;;;;16.40;12.20;;;9.60;99.90;;;;;;5012590;28;20162;-79
2021/05/20 03:16:53;;;;;;;17.70;13.17;;;9.70;99.90;;;;;;5012752;28;20533;-78
2021/05/20 03:19:19;;;;;;;17.10;12.47;;;9.70;99.90;;;;;;5013042;28;20167;-78
2021/05/20 03:21:45;;;;;;;14.87;12.97;;;9.80;99.90;;;;;;5011647;28;20182;-79
2021/05/20 03:24:11;;;;;;;15.37;13.03;;;9.70;99.90;;;;;;5012470;28;20216;-79
2021/05/20 03:26:37;;;;;;;18.43;13.27;;;9.60;99.90;;;;;;5012403;28;20189;-80
2021/05/20 03:29:04;;;;;;;14.90;12.97;;;9.50;99.90;;;;;;5011313;28;20182;-80
2021/05/20 03:31:31;;;;;;;18.80;13.57;;;9.50;99.90;;;;;;5012538;28;20217;-80
2021/05/20 03:33:56;;;;;;;16.83;13.83;;;9.30;99.90;;;;;;5012874;28;20639;-79
2021/05/20 03:36:22;;;;;;;17.03;12.80;;;9.30;99.90;;;;;;5010893;28;20190;-79
2021/05/20 03:38:48;;;;;;;17.60;12.83;;;9.30;99.90;;;;;;5013088;28;20249;-79
2021/05/20 03:41:13;;;;;;;15.53;12.70;;;9.40;99.90;;;;;;5012913;28;20631;-80
2021/05/20 03:43:39;;;;;;;16.47;13.87;;;9.40;99.90;;;;;;5002205;28;20193;-79
2021/05/20 03:46:06;;;;;;;14.97;12.60;;;9.40;99.90;;;;;;4993030;28;20175;-81
2021/05/20 03:48:33;;;;;;;15.80;12.90;;;9.30;99.90;;;;;;4993050;28;20175;-79
2021/05/20 03:50:59;;;;;;;17.57;13.33;;;9.20;99.90;;;;;;4993061;28;20206;-78
2021/05/20 03:53:31;;;;;;;16.97;13.07;;;9.10;99.90;;;;;;4992882;28;20178;-79
2021/05/20 03:55:58;;;;;;;17.53;13.20;;;9.10;99.90;;;;;;4991386;28;20774;-80
2021/05/20 03:58:24;;;;;;;17.47;14.37;;;9.20;99.90;;;;;;5010263;28;20173;-79
2021/05/20 04:00:50;;;;;;;17.13;13.57;;;9.20;99.90;;;;;;5011237;28;20190;-80
2021/05/20 04:03:29;;;;;;;15.30;13.70;;;9.20;99.90;;;;;;5012459;28;20174;-82
2021/05/20 04:05:59;;;;;;;17.17;15.13;;;9.30;99.90;;;;;;5010735;28;20515;-80
2021/05/20 04:08:25;;;;;;;18.43;14.33;;;9.30;99.90;;;;;;5012102;28;20212;-79
2021/05/20 04:10:52;;;;;;;19.17;14.73;;;9.30;99.90;;;;;;5011666;28;20197;-79
2021/05/20 04:13:40;;;;;;;16.33;13.83;;;9.30;99.90;;;;;;5010764;28;20260;-80
2021/05/20 04:16:08;;;;;;;17.40;14.47;;;9.30;99.90;;;;;;5012171;28;20221;-79
2021/05/20 04:18:34;;;;;;;18.80;15.37;;;9.30;99.90;;;;;;5012405;28;20171;-80
2021/05/20 04:20:59;;;;;;;17.97;15.67;;;9.50;99.90;;;;;;5012436;28;20170;-79
2021/05/20 04:23:26;;;;;;;19.80;14.80;;;9.60;99.90;;;;;;5011968;28;20170;-80
2021/05/20 04:25:52;;;;;;;19.50;16.00;;;9.70;99.90;;;;;;5013577;28;20186;-79
2021/05/20 04:28:17;;;;;;;19.40;15.20;;;9.60;99.90;;;;;;5015879;28;20174;-80
2021/05/20 04:30:45;;;;;;;21.33;16.73;;;9.50;99.90;;;;;;5015042;28;20582;-80
2021/05/20 04:33:11;;;;;;;22.00;16.53;;;9.50;99.90;;;;;;5013722;28;20182;-80
2021/05/20 04:35:37;;;;;;;20.47;17.23;;;9.60;99.90;;;;;;5016308;28;20259;-79
2021/05/20 04:38:04;;;;;;;23.47;16.97;;;9.60;99.90;;;;;;5016135;28;20166;-78
2021/05/20 04:40:31;;;;;;;18.30;16.23;;;9.60;99.90;;;;;;5015259;28;20174;-80
2021/05/20 04:42:57;;;;;;;19.20;16.87;;;9.60;99.90;;;;;;5015076;28;20172;-79
2021/05/20 04:45:23;;;;;;;18.50;15.90;;;9.80;99.90;;;;;;5014208;28;20166;-77
2021/05/20 04:47:49;;;;;;;18.90;15.93;;;9.80;99.90;;;;;;5015373;28;20170;-77
2021/05/20 04:50:16;;;;;;;20.20;15.93;;;9.90;99.90;;;;;;5014375;28;20190;-79
2021/05/20 04:52:43;;;;;;;20.17;16.87;;;10.00;99.90;;;;;;5014971;28;20221;-79
2021/05/20 04:55:10;;;;;;;21.13;16.97;;;10.10;99.90;;;;;;5014591;28;20229;-79
2021/05/20 04:57:36;;;;;;;20.13;16.80;;;10.20;99.80;;;;;;5015194;28;20209;-78
2021/05/20 05:00:04;;;;;;;22.20;17.00;;;10.20;99.60;;;;;;5014016;28;20213;-79
2021/05/20 05:02:30;;;;;;;19.50;15.50;;;10.30;99.50;;;;;;5014305;28;20198;-80
2021/05/20 05:04:56;;;;;;;23.80;17.53;;;10.40;97.90;;;;;;5015202;28;20708;-79
2021/05/20 05:07:21;;;;;;;23.67;18.70;;;10.50;97.40;;;;;;5015025;28;20174;-79
2021/05/20 05:09:47;;;;;;;21.63;17.77;;;10.40;97.10;;;;;;5014577;28;20531;-79
2021/05/20 05:12:13;;;;;;;20.73;16.30;;;10.30;97.90;;;;;;5013006;28;20233;-79
2021/05/20 05:14:38;;;;;;;23.87;17.57;;;10.10;98.60;;;;;;5013504;28;20265;-80
2021/05/20 05:17:04;;;;;;;23.97;18.00;;;10.10;99.80;;;;;;5013964;28;20647;-81
2021/05/20 05:19:29;;;;;;;21.23;16.17;;;10.00;99.80;;;;;;5013673;28;20174;-79
2021/05/20 05:21:59;;;;;;;20.97;16.03;;;10.10;99.90;;;;;;5014711;28;20242;-80
2021/05/20 05:24:25;;;;;;;21.63;17.07;;;10.10;99.90;;;;;;5014259;28;20253;-79
2021/05/20 05:26:50;;;;;;;22.90;17.47;;;10.10;99.90;;;;;;5013001;28;20293;-79
2021/05/20 05:29:16;;;;;;;22.77;17.83;;;10.20;99.90;;;;;;5012969;28;20209;-79
2021/05/20 05:31:42;;;;;;;21.93;18.63;;;10.30;99.80;;;;;;5012269;28;20211;-80
2021/05/20 05:34:08;;;;;;;28.73;17.43;;;10.40;99.50;;;;;;5013859;28;20182;-79
2021/05/20 05:36:33;;;;;;;25.00;19.00;;;10.60;99.20;;;;;;5013296;28;20203;-81
2021/05/20 05:38:59;;;;;;;21.37;16.83;;;10.70;97.90;;;;;;5012474;28;20179;-80
2021/05/20 05:41:25;;;;;;;22.00;17.67;;;10.70;97.40;;;;;;5014315;28;20178;-80
2021/05/20 05:43:51;;;;;;;28.50;18.50;;;10.70;96.90;;;;;;5013858;28;20234;-79
2021/05/20 05:46:16;;;;;;;24.07;17.57;;;10.60;97.30;;;;;;5014006;28;20166;-80
2021/05/20 05:48:43;;;;;;;24.77;18.07;;;10.70;97.30;;;;;;5012280;28;20187;-77
2021/05/20 05:51:12;;;;;;;24.33;18.47;;;10.80;97.50;;;;;;5014272;28;20204;-81
2021/05/20 05:53:38;;;;;;;25.43;18.60;;;10.50;98.60;;;;;;5012328;28;20546;-79
2021/05/20 05:56:04;;;;;;;21.13;18.03;;;10.60;99.20;;;;;;5011796;28;20180;-79
2021/05/20 05:58:30;;;;;;;20.93;18.33;;;10.60;99.40;;;;;;5012370;28;20730;-81
2021/05/20 06:00:56;;;;;;;19.93;17.00;;;10.70;99.60;;;;;;5013340;28;20190;-80
2021/05/20 06:03:23;;;;;;;21.60;17.83;;;10.70;99.30;;;;;;5012729;28;20178;-81
2021/05/20 06:05:49;;;;;;;24.07;18.57;;;10.80;99.00;;;;;;5011722;28;20650;-79
2021/05/20 06:08:15;;;;;;;23.97;19.03;;;11.10;97.80;;;;;;5011043;28;20178;-80
2021/05/20 06:10:40;;;;;;;21.87;19.33;;;11.20;97.30;;;;;;5012542;28;20254;-85
2021/05/20 06:13:06;;;;;;;22.77;18.60;;;11.40;96.00;;;;;;5011967;28;20205;-78
2021/05/20 06:15:32;;;;;;;26.77;19.80;;;11.30;95.60;;;;;;5012899;28;20225;-79
2021/05/20 06:17:58;;;;;;;29.40;18.87;;;11.20;96.50;;;;;;5010683;28;20269;-80
2021/05/20 06:20:24;;;;;;;22.27;18.93;;;11.30;96.30;;;;;;5012830;28;20170;-80
2021/05/20 06:22:49;;;;;;;22.67;18.60;;;11.30;95.90;;;;;;5012006;28;20581;-79
2021/05/20 06:25:15;;;;;;;20.90;18.20;;;11.30;96.40;;;;;;5011506;28;20768;-78
2021/05/20 06:27:41;;;;;;;21.67;19.37;;;11.20;96.70;;;;;;5009197;28;20183;-78
2021/05/20 06:30:07;;;;;;;24.13;19.60;;;11.30;97.00;;;;;;5001681;28;20904;-78
2021/05/20 06:32:32;;;;;;;24.33;18.90;;;11.30;96.70;;;;;;5006538;28;20206;-80
2021/05/20 06:36:42;;;;;;;24.57;18.90;;;11.30;97.00;;;;;;5088251;28;20586;-81
2021/05/20 06:39:08;;;;;;;23.50;19.30;;;11.40;97.50;;;;;;5088343;28;20243;-80
2021/05/20 06:41:34;;;;;;;22.60;18.10;;;11.50;97.00;;;;;;5088521;28;20167;-80
2021/05/20 06:44:00;;;;;;;21.63;17.70;;;11.70;95.90;;;;;;5088082;28;20186;-81
2021/05/20 06:46:25;;;;;;;19.97;17.33;;;11.90;95.30;;;;;;5087000;28;20175;-80
2021/05/20 06:48:51;;;;;;;21.70;17.40;;;12.00;94.70;;;;;;5088497;28;20168;-80
2021/05/20 06:51:17;;;;;;;22.97;17.67;;;12.10;94.10;;;;;;5100870;28;20175;-81
2021/05/20 06:53:47;;;;;;;21.60;17.57;;;12.00;93.80;;;;;;5108784;28;20167;-79
2021/05/20 06:56:17;;;;;;;22.50;17.03;;;11.90;94.90;;;;;;5106751;28;20569;-80
2021/05/20 07:01:26;;;;;;;20.97;18.23;;;12.00;94.80;;;;;;5091008;28;20229;-79
2021/05/20 07:03:52;;;;;;;24.23;18.97;;;12.40;93.90;;;;;;5088346;28;20170;-81
2021/05/20 07:06:18;;;;;;;22.63;19.13;;;12.50;92.30;;;;;;5087904;28;20167;-79
2021/05/20 07:08:44;;;;;;;25.20;19.70;;;12.50;91.90;;;;;;5088226;28;20187;-80
2021/05/20 07:11:10;;;;;;;20.13;17.97;;;12.40;92.30;;;;;;5086828;28;20183;-80
2021/05/20 07:13:36;;;;;;;21.70;17.97;;;12.50;92.70;;;;;;5088071;28;20171;-81
2021/05/20 07:16:02;;;;;;;22.87;18.50;;;12.50;92.20;;;;;;5087473;28;20286;-80
2021/05/20 07:18:27;;;;;;;23.97;17.37;;;12.50;92.20;;;;;;5086453;28;20241;-81
2021/05/20 07:20:53;;;;;;;23.13;18.53;;;12.50;92.40;;;;;;5086080;28;20208;-80
2021/05/20 07:23:20;;;;;;;23.30;18.27;;;12.50;92.30;;;;;;5087417;28;20179;-80
2021/05/20 07:25:46;;;;;;;23.77;18.13;;;12.60;92.70;;;;;;5103622;28;20615;-80
2021/05/20 07:28:12;;;;;;;20.53;16.57;;;12.70;92.40;;;;;;5100810;28;20358;-80
2021/05/20 07:30:39;;;;;;;19.40;16.97;;;12.80;92.10;;;;;;5065762;28;20173;-80
2021/05/20 07:33:05;;;;;;;24.40;18.20;;;12.90;91.50;;;;;;5067195;28;20234;-80
2021/05/20 07:35:31;;;;;;;19.83;16.20;;;13.20;87.80;;;;;;5081254;28;20680;-81
2021/05/20 07:37:58;;;;;;;22.47;18.63;;;13.10;86.60;;;;;;5082504;28;20231;-79
2021/05/20 07:40:24;;;;;;;20.47;16.57;;;13.10;88.20;;;;;;5089622;28;20206;-80
2021/05/20 07:42:50;;;;;;;19.43;16.83;;;13.20;85.00;;;;;;5082351;28;20176;-80
2021/05/20 07:45:16;;;;;;;24.00;17.80;;;13.30;83.60;;;;;;5083890;28;20180;-80
2021/05/20 07:47:43;;;;;;;20.60;16.93;;;13.50;83.00;;;;;;5069922;28;20210;-80
2021/05/20 07:50:10;;;;;;;22.43;17.33;;;13.60;82.50;;;;;;5068585;28;20242;-81
2021/05/20 07:52:36;;;;;;;20.47;16.40;;;13.70;82.00;;;;;;5073499;28;20168;-80
2021/05/20 07:55:03;;;;;;;23.63;18.40;;;13.90;80.90;;;;;;5073265;28;20196;-80
2021/05/20 07:57:29;;;;;;;21.17;18.13;;;13.80;80.10;;;;;;5064394;28;20187;-81
2021/05/20 07:59:54;;;;;;;22.03;18.53;;;13.90;81.50;;;;;;5071960;28;20279;-81
2021/05/20 08:04:56;;;;;;;20.67;17.30;;;14.00;76.50;;;;;;5073384;28;20636;-83
2021/05/20 08:12:35;;;;;;;26.23;18.53;;;14.00;73.20;;;;;;5073789;28;20186;-81
2021/05/20 08:15:01;;;;;;;23.10;18.20;;;14.00;74.30;;;;;;5084969;28;20206;-81
2021/05/20 08:17:26;;;;;;;22.17;18.23;;;14.00;76.20;;;;;;5093687;28;20185;-80
2021/05/20 08:19:52;;;;;;;19.10;17.10;;;14.10;71.00;;;;;;5071833;28;20179;-79
2021/05/20 08:22:18;;;;;;;22.70;18.27;;;14.30;68.60;;;;;;5073362;28;20178;-79
2021/05/20 08:24:44;;;;;;;22.97;18.93;;;14.40;67.40;;;;;;5080464;28;20175;-81
2021/05/20 08:27:11;;;;;;;23.77;20.20;;;14.70;64.40;;;;;;5067311;28;20176;-80
2021/05/20 08:29:38;;;;;;;26.67;20.37;;;14.50;58.70;;;;;;5061703;28;20270;-80
2021/05/20 08:32:04;;;;;;;25.17;19.80;;;14.50;59.30;;;;;;5082260;28;20190;-80
2021/05/20 08:34:30;;;;;;;24.73;22.03;;;14.60;57.00;;;;;;5092546;28;20622;-81
2021/05/20 08:36:56;;;;;;;25.13;21.67;;;14.40;62.00;;;;;;5073203;28;20273;-80
2021/05/20 08:39:22;;;;;;;24.83;22.13;;;14.10;65.20;;;;;;5071614;28;20749;-81
2021/05/20 08:41:53;;;;;;;25.43;22.57;;;14.20;68.40;;;;;;5073084;28;20181;-80
2021/05/20 08:44:19;;;;;;;25.80;22.43;;;14.20;70.00;;;;;;5072730;28;20243;-80
2021/05/20 08:46:45;;;;;;;30.67;24.30;;;14.40;65.20;;;;;;5071025;28;20299;-79
2021/05/20 08:49:17;;;;;;;27.83;23.90;;;14.50;63.60;;;;;;5060842;28;20180;-80
2021/05/20 08:51:49;;;;;;;31.70;25.60;;;14.60;65.60;;;;;;5070861;28;20197;-80
2021/05/20 08:54:15;;;;;;;29.43;23.53;;;14.60;68.80;;;;;;5071896;28;20183;-80
2021/05/20 08:56:52;;;;;;;25.87;21.57;;;14.80;67.20;;;;;;5073259;28;20907;-80
2021/05/20 08:59:18;;;;;;;22.53;17.23;;;15.00;61.70;;;;;;5069046;28;20267;-81
2021/05/20 09:01:45;;;;;;;20.70;15.33;;;15.10;53.60;;;;;;5072253;28;20608;-80
2021/05/20 09:04:11;;;;;;;15.97;12.63;;;15.10;54.40;;;;;;5071075;28;20226;-80
2021/05/20 09:06:39;;;;;;;15.30;10.37;;;15.10;53.10;;;;;;5085074;28;20670;-81
2021/05/20 09:09:13;;;;;;;12.23;9.63;;;15.20;48.10;;;;;;5088547;28;20692;-80
2021/05/20 09:11:54;;;;;;;13.40;9.37;;;15.20;44.40;;;;;;5066847;28;20220;-80
2021/05/20 09:14:38;;;;;;;14.47;10.13;;;15.30;42.60;;;;;;5062467;28;20575;-80
2021/05/20 09:17:12;;;;;;;14.20;9.67;;;15.50;45.10;;;;;;5060233;28;20176;-81
2021/05/20 09:19:40;;;;;;;13.93;10.17;;;15.80;34.40;;;;;;5060775;28;20164;-80
2021/05/20 09:22:08;;;;;;;13.30;8.60;;;15.90;36.80;;;;;;5060609;28;20167;-81
2021/05/20 09:25:00;;;;;;;11.80;8.07;;;15.80;35.90;;;;;;5062980;28;20167;-81
2021/05/20 09:27:36;;;;;;;15.50;8.87;;;15.80;20.10;;;;;;5060891;28;20640;-80
2021/05/20 09:30:24;;;;;;;19.47;11.93;;;15.80;20.80;;;;;;5060816;28;20267;-80
2021/05/20 09:33:02;;;;;;;17.63;12.93;;;15.80;20.20;;;;;;5061619;28;20178;-81
2021/05/20 09:35:31;;;;;;;21.30;14.53;;;15.70;15.20;;;;;;5059329;28;20208;-80
2021/05/20 09:38:07;;;;;;;23.40;16.93;;;15.80;2.70;;;;;;5053741;28;20166;-80
2021/05/20 09:40:38;;;;;;;20.47;14.03;;;15.60;16.50;;;;;;5061840;28;20213;-81
2021/05/20 09:43:21;;;;;;;24.00;17.90;;;15.70;17.80;;;;;;5057975;28;20386;-80
2021/05/20 09:45:50;;;;;;;18.77;14.83;;;15.60;21.40;;;;;;5048953;28;20177;-80
2021/05/20 09:48:16;;;;;;;15.90;12.30;;;15.30;29.40;;;;;;5049831;28;20175;-80
2021/05/20 09:50:47;;;;;;;14.67;13.03;;;15.10;26.40;;;;;;5050387;28;20226;-81
2021/05/20 09:53:17;;;;;;;14.17;11.73;;;14.80;34.60;;;;;;5049985;28;20165;-80
2021/05/20 09:55:55;;;;;;;14.90;12.17;;;14.70;38.70;;;;;;5051085;28;20798;-80
2021/05/20 09:58:23;;;;;;;12.33;10.70;;;14.60;42.20;;;;;;5051725;28;20165;-79
2021/05/20 10:00:50;;;;;;;12.87;11.10;;;14.70;44.80;;;;;;5051898;28;20587;-81
2021/05/20 10:03:18;;;;;;;12.93;11.63;;;15.00;36.50;;;;;;5050079;28;20251;-80
2021/05/20 10:05:45;;;;;;;14.30;11.50;;;15.20;33.30;;;;;;5064796;28;20185;-79
2021/05/20 10:08:16;;;;;;;12.70;11.03;;;15.20;32.50;;;;;;5089867;28;20196;-81
2021/05/20 10:10:47;;;;;;;13.93;11.33;;;15.30;31.00;;;;;;5071954;28;20548;-79
2021/05/20 10:13:19;;;;;;;13.07;10.63;;;15.50;29.10;;;;;;5070919;28;20679;-80
2021/05/20 10:15:46;;;;;;;11.33;10.13;;;15.60;26.80;;;;;;5068945;28;20223;-80
2021/05/20 10:18:14;;;;;;;12.13;9.10;;;15.60;26.70;;;;;;5070982;28;20165;-80
2021/05/20 10:20:42;;;;;;;10.03;8.47;;;15.70;24.80;;;;;;5071182;28;20628;-80
2021/05/20 10:23:19;;;;;;;9.20;8.30;;;15.90;15.50;;;;;;5070155;28;20178;-80
2021/05/20 10:25:47;;;;;;;8.73;7.90;;;15.80;13.70;;;;;;5085659;28;20175;-81
2021/05/20 10:28:15;;;;;;;13.17;8.20;;;15.90;17.90;;;;;;5083657;28;20715;-80
2021/05/20 10:30:44;;;;;;;9.77;7.47;;;16.00;11.40;;;;;;5050939;28;20176;-79
2021/05/20 10:33:10;;;;;;;8.93;7.87;;;15.90;4.30;;;;;;5051194;28;20180;-80
2021/05/20 10:35:50;;;;;;;8.27;7.13;;;16.10;5.80;;;;;;5051185;28;20220;-81
2021/05/20 10:38:34;;;;;;;11.00;6.60;;;16.10;1.00;;;;;;5049893;28;20210;-79
2021/05/20 10:41:17;;;;;;;10.23;7.30;;;16.00;1.00;;;;;;5050374;28;20168;-81
2021/05/20 10:43:47;;;;;;;11.20;7.50;;;15.90;4.80;;;;;;5048879;28;20173;-81
2021/05/20 10:46:15;;;;;;;8.73;7.30;;;15.90;7.20;;;;;;5049135;28;20260;-80
2021/05/20 10:48:55;;;;;;;8.37;7.13;;;16.10;3.80;;;;;;5052568;28;20167;-79
2021/05/20 10:51:41;;;;;;;8.10;7.20;;;16.20;1.00;;;;;;5070500;28;20247;-80
2021/05/20 10:54:09;;;;;;;7.93;6.57;;;16.30;1.00;;;;;;5069110;28;20199;-80
2021/05/20 10:56:37;;;;;;;8.83;6.73;;;16.30;1.00;;;;;;5068736;28;20603;-81
2021/05/20 10:59:33;;;;;;;6.33;5.40;;;16.10;1.00;;;;;;5058718;28;20169;-81
2021/05/20 11:01:59;;;;;;;9.97;5.43;;;16.20;1.00;;;;;;5050897;28;20184;-81
2021/05/20 11:04:36;;;;;;;6.67;5.90;;;16.10;1.00;;;;;;5050799;28;20190;-81
2021/05/20 11:07:03;;;;;;;7.70;5.20;;;16.10;1.00;;;;;;5086622;28;20170;-80
2021/05/20 11:09:51;;;;;;;9.53;5.03;;;16.10;1.00;;;;;;5082369;28;20174;-81
2021/05/20 11:12:20;;;;;;;6.13;5.43;;;16.20;1.00;;;;;;5069084;28;20687;-81
2021/05/20 11:14:47;;;;;;;7.53;5.27;;;16.20;1.00;;;;;;5070323;28;20271;-80
2021/05/20 11:17:35;;;;;;;5.53;4.93;;;16.40;1.00;;;;;;5072011;28;20206;-82
2021/05/20 11:20:27;;;;;;;7.60;5.07;;;16.50;1.00;;;;;;5069496;28;20176;-80
2021/05/20 11:23:17;;;;;;;5.63;4.93;;;16.60;1.00;;;;;;5071639;28;20177;-81
2021/05/20 11:25:44;;;;;;;6.83;5.20;;;16.60;1.00;;;;;;5088972;28;20179;-81
2021/05/20 11:28:10;;;;;;;7.13;5.10;;;16.60;1.00;;;;;;5086699;28;20650;-79
2021/05/20 11:30:36;;;;;;;5.73;4.90;;;16.70;1.00;;;;;;5052682;28;20165;-78
2021/05/20 11:33:03;;;;;;;5.73;4.83;;;16.80;1.00;;;;;;5054490;28;20255;-79
2021/05/20 11:35:56;;;;;;;8.20;5.03;;;16.90;1.00;;;;;;5052658;28;20219;-80
2021/05/20 11:38:24;;;;;;;7.33;5.23;;;17.10;1.00;;;;;;5059389;28;20219;-79
2021/05/20 11:40:49;;;;;;;9.73;5.60;;;17.10;1.00;;;;;;5052762;28;20588;-81
2021/05/20 11:43:15;;;;;;;6.57;4.67;;;17.10;1.00;;;;;;5053125;28;20212;-82
2021/05/20 11:45:41;;;;;;;7.07;4.40;;;17.00;1.00;;;;;;5069048;28;20268;-81
2021/05/20 11:48:06;;;;;;;7.90;4.60;;;16.80;1.00;;;;;;5059635;28;20185;-80
2021/05/20 11:50:34;;;;;;;6.53;4.20;;;16.80;1.00;;;;;;5054027;28;20177;-80
2021/05/20 11:53:11;;;;;;;5.03;4.20;;;16.90;1.00;;;;;;5052923;28;20708;-83
2021/05/20 11:55:38;;;;;;;5.07;4.00;;;17.00;1.00;;;;;;5053528;28;20269;-80
2021/05/20 11:58:04;;;;;;;4.93;3.33;;;16.70;1.00;;;;;;5052593;28;20199;-80
2021/05/20 12:00:30;;;;;;;5.70;3.47;;;16.50;1.00;;;;;;5073591;28;20562;-79
2021/05/20 12:02:57;;;;;;;5.83;3.10;;;16.50;1.00;;;;;;5072086;28;20270;-80
2021/05/20 12:05:24;;;;;;;6.70;3.73;;;16.80;1.00;;;;;;5072114;28;20189;-81
2021/05/20 12:07:49;;;;;;;6.10;3.70;;;16.90;1.00;;;;;;5071973;28;20180;-81
2021/05/20 12:10:20;;;;;;;5.77;4.23;;;17.00;1.00;;;;;;5072694;28;20180;-80
2021/05/20 12:12:59;;;;;;;7.50;3.80;;;17.10;1.00;;;;;;5072824;28;20251;-82
2021/05/20 12:15:26;;;;;;;6.80;4.10;;;16.90;1.00;;;;;;5071979;28;20266;-80
2021/05/20 12:17:56;;;;;;;5.50;3.83;;;16.90;1.00;;;;;;5073725;28;20181;-80
2021/05/20 12:20:24;;;;;;;6.97;3.53;;;16.80;1.00;;;;;;5072220;28;20565;-80
2021/05/20 12:22:50;;;;;;;4.70;3.07;;;16.80;1.00;;;;;;5072362;28;20179;-81
2021/05/20 12:25:18;;;;;;;6.27;3.27;;;16.80;1.00;;;;;;5072093;28;20576;-81
2021/05/20 12:27:45;;;;;;;4.47;2.90;;;16.70;1.00;;;;;;5070584;28;20176;-80
2021/05/20 12:30:16;;;;;;;9.03;3.60;;;16.80;1.00;;;;;;5064577;28;20268;-80
2021/05/20 12:32:46;;;;;;;7.03;3.00;;;16.70;1.00;;;;;;5063615;28;20198;-80
2021/05/20 12:35:22;;;;;;;4.43;2.90;;;16.70;1.00;;;;;;5062595;28;20356;-80
2021/05/20 12:37:59;;;;;;;7.57;2.83;;;16.70;1.00;;;;;;5064029;28;20641;-80
2021/05/20 12:40:33;;;;;;;4.93;2.23;;;16.70;1.00;;;;;;5061060;28;20179;-80
2021/05/20 12:43:09;;;;;;;8.07;2.60;;;16.80;1.00;;;;;;5062597;28;20175;-80
2021/05/20 12:46:00;;;;;;;8.03;3.27;;;16.80;1.00;;;;;;5067964;28;20180;-82
2021/05/20 12:48:39;;;;;;;6.10;2.87;;;16.80;1.00;;;;;;5064538;28;20169;-80
2021/05/20 12:51:15;;;;;;;5.60;2.80;;;16.80;1.00;;;;;;5060269;28;20215;-80
2021/05/20 12:53:43;;;;;;;7.67;3.10;;;16.70;1.00;;;;;;5063897;28;20176;-79